Time;durP1;ratioP1;P1;durP2;ratioP2;P2;SDS_P1;SDS_P2;PMS_P1;PMS_P2;Temp;Humidity;BMP_temperature;BMP_pressure;BME280_temperature;BME280_humidity;BME280_pressure;Samples;Min_cycle;Max_cycle;Signal;HPM_P1;HPM_P2
2021/10/21 00:00:29;;;;;;;22.45;12.88;;;;;;;10.23;60.70;97682.78;5090672;28;20034;-71
2021/10/21 00:02:54;;;;;;;23.10;12.27;;;;;;;10.29;61.15;97667.84;5089884;28;20024;-72
2021/10/21 00:05:20;;;;;;;20.50;13.10;;;;;;;10.35;60.86;97669.31;5086198;28;20491;-72
2021/10/21 00:07:46;;;;;;;22.92;12.07;;;;;;;10.39;61.05;97670.31;5080557;28;20028;-73
2021/10/21 00:10:12;;;;;;;17.80;12.15;;;;;;;10.43;61.02;97665.84;5079715;28;20028;-73
2021/10/21 00:12:38;;;;;;;19.20;11.98;;;;;;;10.47;60.94;97667.94;5080316;28;20078;-72
2021/10/21 00:15:05;;;;;;;18.88;11.23;;;;;;;10.49;61.18;97666.53;5084804;28;20047;-73
2021/10/21 00:17:31;;;;;;;18.80;10.77;;;;;;;10.48;61.06;97662.16;5088691;28;20028;-72
2021/10/21 00:19:57;;;;;;;17.65;10.07;;;;;;;10.46;61.36;97655.38;5083242;28;20566;-73
2021/10/21 00:22:22;;;;;;;20.65;12.25;;;;;;;10.41;61.03;97653.56;5084552;28;20043;-71
2021/10/21 00:24:48;;;;;;;23.85;14.48;;;;;;;10.36;61.60;97643.53;5086778;28;20028;-72
2021/10/21 00:27:13;;;;;;;25.55;15.55;;;;;;;10.37;61.48;97634.19;5082274;28;20056;-72
2021/10/21 00:29:39;;;;;;;28.80;17.27;;;;;;;10.36;60.54;97639.97;5080116;28;20036;-72
2021/10/21 00:32:04;;;;;;;25.42;15.90;;;;;;;10.21;61.10;97633.75;5083483;28;20039;-72
2021/10/21 00:34:30;;;;;;;23.27;14.38;;;;;;;10.19;61.35;97632.47;5065568;28;20436;-72
2021/10/21 00:36:55;;;;;;;30.98;17.88;;;;;;;10.10;61.41;97641.44;5082011;28;20155;-72
2021/10/21 00:39:22;;;;;;;29.73;16.98;;;;;;;10.03;61.60;97645.75;5081918;28;20032;-72
2021/10/21 00:41:47;;;;;;;29.70;17.73;;;;;;;9.99;61.82;97637.34;5077959;28;20030;-72
2021/10/21 00:44:14;;;;;;;30.42;17.30;;;;;;;9.96;61.96;97632.50;5075041;28;20033;-72
2021/10/21 00:46:40;;;;;;;29.60;18.15;;;;;;;9.95;62.23;97625.41;5083510;28;20016;-72
2021/10/21 00:49:07;;;;;;;28.98;17.63;;;;;;;9.95;62.68;97623.47;5081984;28;20405;-71
2021/10/21 00:51:33;;;;;;;28.58;16.42;;;;;;;9.92;62.27;97621.34;5083825;28;20093;-72
2021/10/21 00:54:01;;;;;;;23.30;14.98;;;;;;;9.98;62.55;97613.84;5081864;28;20028;-72
2021/10/21 00:56:27;;;;;;;24.95;15.20;;;;;;;10.00;62.93;97611.56;5082460;28;20031;-72
2021/10/21 00:58:53;;;;;;;25.40;14.68;;;;;;;10.02;62.42;97616.75;5086043;28;20027;-71
2021/10/21 01:01:20;;;;;;;24.80;14.63;;;;;;;10.05;62.32;97607.91;5091132;28;20028;-72
2021/10/21 01:03:46;;;;;;;26.73;15.73;;;;;;;10.07;62.75;97603.72;5088953;28;20039;-73
2021/10/21 01:06:12;;;;;;;25.95;15.77;;;;;;;10.08;62.25;97602.59;5086972;28;20024;-72
2021/10/21 01:08:37;;;;;;;26.58;14.88;;;;;;;10.15;62.68;97599.44;5083425;28;20474;-73
2021/10/21 01:11:03;;;;;;;25.63;15.63;;;;;;;10.22;62.73;97597.03;5087405;28;20051;-72
2021/10/21 01:13:29;;;;;;;24.45;14.95;;;;;;;10.31;63.19;97599.00;5086848;28;20024;-73
2021/10/21 01:16:10;;;;;;;23.63;14.70;;;;;;;10.34;63.01;97593.72;5090753;28;20027;-72
2021/10/21 01:18:37;;;;;;;26.25;16.55;;;;;;;10.27;62.58;97588.66;5088132;28;20096;-71
2021/10/21 01:21:06;;;;;;;29.98;16.98;;;;;;;10.26;63.04;97587.03;5068900;28;20483;-72
2021/10/21 01:23:32;;;;;;;26.58;16.08;;;;;;;10.26;63.17;97583.50;5073297;28;20059;-74
2021/10/21 01:25:57;;;;;;;27.38;16.48;;;;;;;10.26;62.80;97581.56;5098459;28;20055;-73
2021/10/21 01:28:23;;;;;;;34.60;18.70;;;;;;;10.26;63.24;97572.56;5104002;28;20024;-72
2021/10/21 01:30:49;;;;;;;29.83;17.15;;;;;;;10.25;63.11;97570.94;5089503;28;20585;-73
2021/10/21 01:33:15;;;;;;;28.02;18.05;;;;;;;10.26;63.37;97578.03;5092538;28;20115;-73
2021/10/21 01:35:40;;;;;;;30.63;17.05;;;;;;;10.26;63.13;97567.84;5094086;28;20039;-73
2021/10/21 01:38:06;;;;;;;30.63;17.60;;;;;;;10.28;63.25;97551.91;5093334;28;20020;-72
2021/10/21 01:40:32;;;;;;;30.00;18.80;;;;;;;10.29;63.28;97547.25;5094028;28;20492;-72
2021/10/21 01:42:58;;;;;;;31.35;19.23;;;;;;;10.31;64.17;97546.94;5093745;28;20468;-73
2021/10/21 01:45:32;;;;;;;37.80;20.70;;;;;;;10.32;63.18;97537.56;5088931;28;20074;-73
2021/10/21 01:48:00;;;;;;;40.90;22.17;;;;;;;10.33;62.93;97528.22;5091149;28;20364;-73
2021/10/21 01:50:28;;;;;;;37.40;21.35;;;;;;;10.34;63.03;97522.44;5104800;28;20123;-74
2021/10/21 01:52:53;;;;;;;42.92;23.88;;;;;;;10.31;63.53;97512.13;5102131;28;20032;-73
2021/10/21 01:55:19;;;;;;;39.95;23.73;;;;;;;10.33;62.91;97509.88;5101873;28;20031;-73
2021/10/21 01:57:45;;;;;;;35.88;20.88;;;;;;;10.35;63.94;97504.88;5075606;28;20035;-73
2021/10/21 02:00:14;;;;;;;34.20;21.05;;;;;;;10.37;63.86;97496.31;5074350;28;20070;-73
2021/10/21 02:02:42;;;;;;;33.00;20.23;;;;;;;10.36;63.88;97492.78;5092259;28;20030;-73
2021/10/21 02:05:08;;;;;;;33.17;19.67;;;;;;;10.36;63.92;97484.56;5096550;28;20012;-73
2021/10/21 02:07:33;;;;;;;35.13;19.98;;;;;;;10.36;63.17;97481.81;5098129;28;20039;-73
2021/10/21 02:09:59;;;;;;;32.47;19.15;;;;;;;10.39;63.71;97475.72;5092063;28;20032;-73
2021/10/21 02:12:24;;;;;;;32.50;18.85;;;;;;;10.40;63.73;97476.53;5093268;28;20120;-72
2021/10/21 02:14:50;;;;;;;25.23;14.93;;;;;;;10.37;63.94;97466.19;5092603;28;20032;-73
2021/10/21 02:17:15;;;;;;;22.83;14.73;;;;;;;10.35;64.26;97469.25;5102405;28;20034;-73
2021/10/21 02:19:41;;;;;;;22.67;11.63;;;;;;;10.36;63.94;97454.41;5093793;28;20028;-73
2021/10/21 02:22:07;;;;;;;18.95;11.75;;;;;;;10.41;65.21;97454.28;5091042;28;20032;-73
2021/10/21 02:24:32;;;;;;;16.98;10.68;;;;;;;10.47;64.86;97449.47;5092833;28;20091;-73
2021/10/21 02:26:58;;;;;;;19.92;11.15;;;;;;;10.54;64.49;97449.78;5090229;28;20430;-73
2021/10/21 02:29:23;;;;;;;19.65;13.35;;;;;;;10.60;64.73;97439.47;5096046;28;20123;-73
2021/10/21 02:31:49;;;;;;;20.30;12.15;;;;;;;10.65;65.11;97433.00;5097236;28;20023;-72
2021/10/21 02:34:14;;;;;;;15.25;10.82;;;;;;;10.69;64.79;97434.81;5089411;28;20051;-73
2021/10/21 02:36:40;;;;;;;19.58;12.80;;;;;;;10.75;64.74;97435.44;5104716;28;20032;-72
2021/10/21 02:39:05;;;;;;;18.27;11.63;;;;;;;10.76;64.76;97430.78;5095290;28;20119;-72
2021/10/21 02:41:31;;;;;;;19.63;12.85;;;;;;;10.76;64.19;97422.56;5095624;28;20372;-72
2021/10/21 02:43:57;;;;;;;16.85;11.10;;;;;;;10.77;64.67;97415.94;5090812;28;20658;-73
2021/10/21 02:46:22;;;;;;;18.00;12.15;;;;;;;10.78;64.76;97414.81;5090734;28;20047;-72
2021/10/21 02:48:48;;;;;;;16.58;11.10;;;;;;;10.79;64.56;97427.38;5104750;28;20023;-73
2021/10/21 02:51:13;;;;;;;17.20;11.07;;;;;;;10.81;64.27;97430.59;5093231;28;20506;-72
2021/10/21 02:53:39;;;;;;;17.38;11.73;;;;;;;10.82;64.73;97422.06;5102162;28;20020;-73
2021/10/21 02:56:04;;;;;;;16.25;11.30;;;;;;;10.85;64.05;97434.31;5091691;28;20148;-73
2021/10/21 02:58:30;;;;;;;15.60;9.82;;;;;;;10.84;64.35;97422.53;5097968;28;20801;-73
2021/10/21 03:00:56;;;;;;;16.63;10.52;;;;;;;10.84;63.97;97427.19;5104646;28;20126;-73
2021/10/21 03:03:22;;;;;;;14.23;10.55;;;;;;;10.87;64.60;97419.16;5091930;28;20176;-72
2021/10/21 03:05:47;;;;;;;14.98;10.23;;;;;;;10.90;64.63;97411.41;5072991;28;20460;-73
2021/10/21 03:08:13;;;;;;;18.15;10.90;;;;;;;10.92;64.17;97406.41;5091184;28;20548;-73
2021/10/21 03:10:38;;;;;;;14.25;10.77;;;;;;;10.95;64.17;97395.56;5091279;28;20013;-73
2021/10/21 03:13:03;;;;;;;17.48;10.63;;;;;;;11.00;64.31;97389.91;5091192;28;20036;-72
2021/10/21 03:15:29;;;;;;;18.30;11.10;;;;;;;11.06;64.28;97393.28;5095937;28;20475;-72
2021/10/21 03:17:55;;;;;;;14.85;10.18;;;;;;;11.08;64.82;97393.78;5100016;28;20055;-73
2021/10/21 03:20:21;;;;;;;15.27;10.38;;;;;;;11.11;64.00;97389.59;5097640;28;20035;-72
2021/10/21 03:22:46;;;;;;;16.92;11.00;;;;;;;11.15;64.12;97380.38;5091508;28;20028;-73
2021/10/21 03:25:12;;;;;;;19.08;11.77;;;;;;;11.20;64.32;97360.19;5091369;28;20472;-73
2021/10/21 03:27:39;;;;;;;12.88;10.13;;;;;;;11.24;64.38;97347.41;5100475;28;20036;-73
2021/10/21 03:30:06;;;;;;;17.27;10.95;;;;;;;11.30;64.58;97351.59;5097230;28;20036;-72
2021/10/21 03:32:32;;;;;;;18.25;11.30;;;;;;;11.34;64.01;97350.94;5083081;28;20032;-73
2021/10/21 03:34:58;;;;;;;17.73;11.40;;;;;;;11.35;64.04;97347.03;5090832;28;20032;-72
2021/10/21 03:37:27;;;;;;;17.13;11.30;;;;;;;11.36;63.87;97340.44;5086791;28;20039;-72
2021/10/21 03:39:53;;;;;;;15.23;11.00;;;;;;;11.37;64.40;97325.56;5070520;28;20034;-72
2021/10/21 03:42:21;;;;;;;15.40;10.25;;;;;;;11.38;63.98;97333.50;5090834;28;20069;-73
2021/10/21 03:44:48;;;;;;;15.68;9.70;;;;;;;11.38;63.75;97333.50;5091037;28;20024;-73
2021/10/21 03:47:14;;;;;;;18.50;10.45;;;;;;;11.36;64.29;97332.19;5095747;28;20055;-73
2021/10/21 03:49:40;;;;;;;16.52;10.73;;;;;;;11.35;64.24;97336.06;5086110;28;20500;-72
2021/10/21 03:52:05;;;;;;;13.75;9.18;;;;;;;11.36;63.60;97329.44;5098038;28;20042;-73
2021/10/21 03:54:31;;;;;;;17.15;10.68;;;;;;;11.35;64.39;97325.09;5097091;28;20032;-73
2021/10/21 03:56:57;;;;;;;16.55;10.77;;;;;;;11.38;63.99;97324.44;5087943;28;20496;-73
2021/10/21 03:59:22;;;;;;;13.52;8.75;;;;;;;11.39;64.02;97324.13;5101455;28;20058;-73
2021/10/21 04:01:48;;;;;;;15.38;9.30;;;;;;;11.41;64.15;97315.53;5092791;28;20438;-72
2021/10/21 04:04:14;;;;;;;18.83;10.05;;;;;;;11.43;64.26;97303.06;5091918;28;20055;-73
2021/10/21 04:06:41;;;;;;;22.20;13.85;;;;;;;11.44;63.72;97298.41;5091226;28;20031;-73
2021/10/21 04:09:07;;;;;;;20.17;13.10;;;;;;;11.45;63.42;97303.56;5091023;28;20034;-72
2021/10/21 04:11:32;;;;;;;19.58;12.10;;;;;;;11.48;63.63;97299.38;5090432;28;20036;-73
2021/10/21 04:13:58;;;;;;;17.27;11.15;;;;;;;11.47;63.42;97295.00;5086892;28;20039;-73
2021/10/21 04:16:23;;;;;;;22.60;14.50;;;;;;;11.46;63.33;97290.66;5102097;28;20467;-72
2021/10/21 04:18:49;;;;;;;19.45;12.00;;;;;;;11.45;63.57;97287.09;5106817;28;20032;-73
2021/10/21 04:21:14;;;;;;;19.20;11.55;;;;;;;11.46;64.11;97283.19;5090623;28;20040;-73
2021/10/21 04:23:40;;;;;;;18.88;12.07;;;;;;;11.46;63.92;97279.66;5087631;28;20035;-73
2021/10/21 04:26:05;;;;;;;17.40;10.43;;;;;;;11.43;63.49;97277.59;5088166;28;20416;-72
2021/10/21 04:28:31;;;;;;;16.90;10.45;;;;;;;11.41;63.29;97277.09;5090313;28;20107;-72
2021/10/21 04:30:56;;;;;;;20.83;12.48;;;;;;;11.38;63.50;97277.75;5100026;28;20118;-72
2021/10/21 04:33:21;;;;;;;21.13;13.35;;;;;;;11.34;64.00;97265.84;5087034;28;20039;-73
2021/10/21 04:35:47;;;;;;;21.95;13.20;;;;;;;11.31;64.11;97261.81;5092443;28;20028;-72
2021/10/21 04:38:12;;;;;;;15.65;11.25;;;;;;;11.28;63.35;97257.78;5102248;28;20489;-73
2021/10/21 04:40:38;;;;;;;20.08;12.52;;;;;;;11.26;63.67;97253.78;5096318;28;20020;-73
2021/10/21 04:43:03;;;;;;;20.13;11.57;;;;;;;11.21;63.58;97252.00;5099829;28;20020;-72
2021/10/21 04:45:28;;;;;;;18.73;11.85;;;;;;;11.17;63.42;97240.88;5097873;28;20027;-74
2021/10/21 04:47:56;;;;;;;19.98;12.00;;;;;;;11.16;64.10;97235.75;5097525;28;20481;-72
2021/10/21 04:50:24;;;;;;;20.75;12.18;;;;;;;11.14;63.72;97229.78;5094088;28;20035;-74
2021/10/21 04:52:52;;;;;;;20.88;12.25;;;;;;;11.10;63.99;97217.84;5097017;28;20023;-73
2021/10/21 04:55:22;;;;;;;19.77;12.35;;;;;;;11.05;64.18;97207.06;5110208;28;20117;-75
2021/10/21 04:57:48;;;;;;;15.98;10.80;;;;;;;11.02;64.00;97203.84;5108569;28;20032;-83
2021/10/21 05:00:14;;;;;;;18.40;11.80;;;;;;;10.98;64.41;97207.59;5097791;28;20050;-81
2021/10/21 05:02:40;;;;;;;21.25;12.60;;;;;;;10.91;63.77;97208.06;5094003;28;20558;-80
2021/10/21 05:05:06;;;;;;;21.27;12.98;;;;;;;10.87;63.93;97201.63;5097946;28;20032;-80
2021/10/21 05:07:32;;;;;;;21.85;12.18;;;;;;;10.84;64.20;97189.41;5097455;28;20046;-81
2021/10/21 05:09:57;;;;;;;23.90;13.95;;;;;;;10.78;64.59;97179.75;5076776;28;20056;-80
2021/10/21 05:12:23;;;;;;;18.58;12.60;;;;;;;10.77;64.78;97177.34;5097318;28;20043;-80
2021/10/21 05:14:49;;;;;;;21.83;14.68;;;;;;;10.73;64.09;97174.44;5097116;28;20020;-80
2021/10/21 05:17:14;;;;;;;33.03;19.58;;;;;;;10.74;64.81;97164.28;5090776;28;21197;-80
2021/10/21 05:19:40;;;;;;;35.15;19.58;;;;;;;10.75;64.67;97169.44;5096118;28;20058;-81
2021/10/21 05:22:05;;;;;;;26.67;16.42;;;;;;;10.74;65.06;97169.78;5096921;28;20043;-81
2021/10/21 05:24:31;;;;;;;28.92;17.05;;;;;;;10.70;64.38;97169.59;5095470;28;20570;-80
2021/10/21 05:26:56;;;;;;;24.80;16.20;;;;;;;10.67;64.14;97164.78;5092568;28;20051;-80
2021/10/21 05:29:22;;;;;;;21.48;14.63;;;;;;;10.65;64.86;97151.41;5097489;28;20020;-80
2021/10/21 05:31:48;;;;;;;19.00;13.85;;;;;;;10.65;64.83;97153.34;5095618;28;20048;-80
2021/10/21 05:34:14;;;;;;;22.02;14.43;;;;;;;10.61;64.47;97142.22;5096700;28;20040;-80
2021/10/21 05:36:39;;;;;;;20.52;13.50;;;;;;;10.62;65.22;97129.31;5108030;28;20388;-80
2021/10/21 05:39:05;;;;;;;21.40;14.32;;;;;;;10.65;65.50;97121.25;5109684;28;20119;-81
2021/10/21 05:41:30;;;;;;;23.52;14.07;;;;;;;10.68;65.50;97117.03;5097283;28;20051;-80
2021/10/21 05:43:55;;;;;;;22.17;13.85;;;;;;;10.69;64.77;97113.16;5095397;28;20563;-80
2021/10/21 05:46:21;;;;;;;23.23;14.27;;;;;;;10.70;66.05;97095.56;5075078;28;20032;-80
2021/10/21 05:48:47;;;;;;;28.88;16.17;;;;;;;10.72;65.58;97093.31;5093033;28;20042;-80
2021/10/21 05:51:13;;;;;;;32.75;17.13;;;;;;;10.75;65.18;97084.41;5103626;28;20063;-81
2021/10/21 05:53:38;;;;;;;24.58;14.40;;;;;;;10.79;65.43;97084.56;5093676;28;20051;-80
2021/10/21 05:56:04;;;;;;;21.42;13.00;;;;;;;10.79;65.29;97068.91;5091330;28;20502;-81
2021/10/21 05:58:29;;;;;;;23.40;14.13;;;;;;;10.83;65.05;97064.38;5094822;28;20032;-80
2021/10/21 06:00:55;;;;;;;26.13;15.50;;;;;;;10.86;65.10;97066.44;5082998;28;20547;-80
2021/10/21 06:03:20;;;;;;;28.15;16.33;;;;;;;10.92;65.62;97080.75;5093986;28;20036;-80
2021/10/21 06:05:46;;;;;;;27.42;16.83;;;;;;;10.97;64.75;97093.50;5095579;28;20514;-81
2021/10/21 06:08:11;;;;;;;32.13;17.35;;;;;;;11.02;65.28;97112.50;5090986;28;20085;-81
2021/10/21 06:10:36;;;;;;;22.27;14.55;;;;;;;11.06;65.49;97112.66;5076461;28;20031;-80
2021/10/21 06:13:04;;;;;;;20.88;14.48;;;;;;;11.10;65.01;97121.81;5091537;28;20024;-80
2021/10/21 06:15:30;;;;;;;25.42;14.38;;;;;;;11.13;64.68;97118.41;5090194;28;20532;-80
2021/10/21 06:17:56;;;;;;;18.35;13.32;;;;;;;11.19;65.45;97124.50;5091300;28;20026;-80
2021/10/21 06:20:22;;;;;;;20.77;13.30;;;;;;;11.26;65.25;97133.81;5090295;28;20051;-80
2021/10/21 06:22:48;;;;;;;21.83;13.35;;;;;;;11.30;64.49;97129.25;5092385;28;20103;-80
2021/10/21 06:25:13;;;;;;;21.38;13.18;;;;;;;11.36;64.37;97129.88;5092923;28;20039;-80
2021/10/21 06:27:39;;;;;;;21.77;14.25;;;;;;;11.41;64.70;97126.13;5100320;28;20044;-81
2021/10/21 06:30:08;;;;;;;23.77;15.48;;;;;;;11.46;64.41;97142.41;5092402;28;20031;-82
2021/10/21 06:32:33;;;;;;;24.92;14.00;;;;;;;11.51;64.90;97155.94;5088778;28;20036;-81
2021/10/21 06:35:00;;;;;;;17.75;12.68;;;;;;;11.55;64.16;97150.56;5091636;28;20020;-80
2021/10/21 06:37:25;;;;;;;26.63;14.27;;;;;;;11.57;64.46;97146.34;5088901;28;20043;-81
2021/10/21 06:39:54;;;;;;;28.20;17.92;;;;;;;11.63;64.51;97146.94;5092524;28;20107;-81
2021/10/21 06:42:21;;;;;;;29.52;17.90;;;;;;;11.69;64.42;97139.28;5091725;28;20545;-80
2021/10/21 06:44:46;;;;;;;25.35;16.90;;;;;;;11.75;64.58;97130.53;5092815;28;20526;-81
2021/10/21 06:47:11;;;;;;;22.00;14.32;;;;;;;11.82;64.19;97119.00;5092514;28;20029;-81
2021/10/21 06:49:37;;;;;;;22.88;16.17;;;;;;;11.90;64.51;97098.06;5091593;28;20063;-81
2021/10/21 06:52:03;;;;;;;25.05;14.52;;;;;;;12.01;64.76;97104.00;5090652;28;20073;-81
2021/10/21 06:54:28;;;;;;;22.20;13.73;;;;;;;12.05;64.28;97115.88;5094679;28;20063;-80
2021/10/21 06:56:53;;;;;;;22.92;13.95;;;;;;;12.07;64.67;97110.84;5090563;28;20031;-80
2021/10/21 06:59:19;;;;;;;32.45;15.98;;;;;;;12.10;64.36;97114.88;5090871;28;20039;-81
2021/10/21 07:01:44;;;;;;;27.83;16.88;;;;;;;12.11;64.16;97106.28;5095899;28;20035;-80
2021/10/21 07:04:10;;;;;;;29.13;16.08;;;;;;;12.17;64.03;97143.41;5093094;28;20028;-82
2021/10/21 07:06:35;;;;;;;22.95;14.07;;;;;;;12.27;63.92;97169.66;5094965;28;20115;-83
2021/10/21 07:09:00;;;;;;;22.33;14.93;;;;;;;12.34;63.90;97153.41;5098811;28;20036;-83
2021/10/21 07:11:26;;;;;;;26.50;14.98;;;;;;;12.40;64.25;97167.78;5085021;28;20603;-81
2021/10/21 07:13:51;;;;;;;28.75;17.17;;;;;;;12.46;64.36;97166.38;5079648;28;20468;-83
2021/10/21 07:16:17;;;;;;;25.63;15.55;;;;;;;12.53;64.01;97152.09;5089031;28;20102;-80
2021/10/21 07:18:42;;;;;;;24.13;15.02;;;;;;;12.58;63.75;97129.06;5098099;28;20487;-81
2021/10/21 07:21:09;;;;;;;22.73;15.15;;;;;;;12.61;63.64;97114.63;5095954;28;20035;-82
2021/10/21 07:23:35;;;;;;;23.80;15.00;;;;;;;12.66;63.91;97119.91;5088805;28;20089;-84
2021/10/21 07:26:00;;;;;;;24.25;15.40;;;;;;;12.71;63.50;97133.44;5088959;28;20063;-89
2021/10/21 07:28:25;;;;;;;27.45;16.73;;;;;;;12.76;63.60;97130.47;5091850;28;20078;-81
2021/10/21 07:30:57;;;;;;;24.73;15.88;;;;;;;12.86;63.59;97131.13;5095159;28;20077;-83
2021/10/21 07:33:22;;;;;;;24.20;15.82;;;;;;;12.94;63.39;97131.03;5085942;28;20028;-82
2021/10/21 07:35:48;;;;;;;24.80;15.20;;;;;;;13.05;63.54;97125.03;5092781;28;20031;-82
2021/10/21 07:38:13;;;;;;;23.42;15.60;;;;;;;13.15;63.25;97107.28;5098445;28;20107;-81
2021/10/21 07:40:39;;;;;;;22.10;13.93;;;;;;;13.29;63.20;97109.66;5091217;28;20116;-80
2021/10/21 07:43:04;;;;;;;24.63;16.50;;;;;;;13.45;63.13;97104.25;5088982;28;20036;-81
2021/10/21 07:45:30;;;;;;;21.55;13.88;;;;;;;13.64;63.24;97112.69;5101652;28;20027;-77
2021/10/21 07:47:56;;;;;;;24.83;15.55;;;;;;;13.76;62.54;97114.59;5098796;28;20122;-80
2021/10/21 07:50:21;;;;;;;25.17;14.43;;;;;;;13.93;62.58;97129.22;5089031;28;20024;-81
2021/10/21 07:52:47;;;;;;;24.67;15.18;;;;;;;14.06;62.31;97155.56;5084178;28;20497;-79
2021/10/21 07:55:13;;;;;;;21.00;14.68;;;;;;;14.12;62.09;97162.44;5086102;28;20104;-79
2021/10/21 07:57:39;;;;;;;22.05;14.73;;;;;;;14.20;62.19;97162.66;5088341;28;20053;-80
2021/10/21 08:00:09;;;;;;;19.92;13.30;;;;;;;14.29;61.84;97172.38;5089561;28;20089;-81
2021/10/21 08:02:34;;;;;;;25.42;14.55;;;;;;;14.31;61.26;97177.50;5089809;28;20063;-81
2021/10/21 08:04:59;;;;;;;24.13;14.93;;;;;;;14.29;61.26;97188.91;5088958;28;20024;-81
2021/10/21 08:07:25;;;;;;;25.90;15.75;;;;;;;14.27;61.49;97206.94;5089444;28;20483;-80
2021/10/21 08:09:50;;;;;;;22.88;14.55;;;;;;;14.23;61.18;97208.81;5102237;28;20084;-81
2021/10/21 08:12:16;;;;;;;23.67;13.10;;;;;;;14.12;60.89;97239.66;5106529;28;20032;-80
2021/10/21 08:14:41;;;;;;;18.75;13.05;;;;;;;14.04;60.96;97248.06;5111029;28;20088;-81
2021/10/21 08:17:07;;;;;;;17.83;13.10;;;;;;;13.95;61.08;97259.22;5095744;28;20016;-81
2021/10/21 08:19:32;;;;;;;18.65;13.20;;;;;;;13.88;61.12;97275.53;5091521;28;20042;-80
2021/10/21 08:21:58;;;;;;;16.67;12.23;;;;;;;13.81;61.45;97271.44;5091433;28;20085;-82
2021/10/21 08:24:24;;;;;;;18.85;12.25;;;;;;;13.75;61.42;97272.81;5091353;28;20028;-82
2021/10/21 08:26:51;;;;;;;17.98;12.80;;;;;;;13.72;61.40;97283.69;5091095;28;20131;-81
2021/10/21 08:29:22;;;;;;;16.65;11.55;;;;;;;13.66;61.68;97275.66;5090976;28;20125;-80
2021/10/21 08:31:47;;;;;;;13.63;9.77;;;;;;;13.64;61.94;97269.72;5095474;28;20042;-80
2021/10/21 08:34:13;;;;;;;19.63;12.98;;;;;;;13.62;62.01;97272.03;5112052;28;20027;-80
2021/10/21 08:36:39;;;;;;;16.15;12.23;;;;;;;13.64;61.97;97250.44;5093546;28;20024;-80
2021/10/21 08:39:07;;;;;;;17.52;13.10;;;;;;;13.68;62.19;97198.97;5091581;28;20457;-80
2021/10/21 08:41:32;;;;;;;24.05;14.00;;;;;;;13.82;62.13;97195.88;5091133;28;20035;-79
2021/10/21 08:43:58;;;;;;;19.70;12.32;;;;;;;14.00;62.23;97156.97;5109491;28;20414;-77
2021/10/21 08:46:25;;;;;;;16.98;12.07;;;;;;;14.22;62.26;97163.09;5111622;28;20069;-80
2021/10/21 08:48:59;;;;;;;18.85;13.60;;;;;;;14.33;62.07;97177.97;5109316;28;20024;-80
2021/10/21 08:51:26;;;;;;;20.98;13.57;;;;;;;14.47;61.84;97187.78;5106805;28;20213;-79
2021/10/21 08:53:52;;;;;;;18.17;12.77;;;;;;;14.57;61.75;97195.56;5109512;28;20039;-79
2021/10/21 08:56:27;;;;;;;19.00;12.63;;;;;;;14.67;61.87;97200.53;5109858;28;20024;-79
2021/10/21 08:58:57;;;;;;;18.80;12.48;;;;;;;14.79;61.72;97205.22;5109751;28;20077;-79
2021/10/21 09:01:33;;;;;;;;;;;;;;;14.91;61.53;97203.50;5092946;28;20024;-80
2021/10/21 09:04:37;;;;;;;15.40;11.45;;;;;;;15.00;60.65;97204.16;5090852;28;20382;-80
2021/10/21 09:09:34;;;;;;;17.38;12.20;;;;;;;14.92;59.75;97228.00;5090402;28;20074;-81
2021/10/21 09:12:14;;;;;;;17.13;12.20;;;;;;;14.86;59.47;97212.88;5088588;28;20059;-81
2021/10/21 09:14:45;;;;;;;15.63;11.77;;;;;;;14.85;59.23;97209.31;5088957;28;20031;-80
2021/10/21 09:17:13;;;;;;;16.80;11.30;;;;;;;14.84;59.60;97207.72;5089003;28;20016;-80
2021/10/21 09:19:40;;;;;;;14.85;12.27;;;;;;;14.84;59.67;97232.56;5088758;28;20059;-79
2021/10/21 09:22:21;;;;;;;14.82;10.50;;;;;;;14.83;59.63;97250.28;5091895;28;20020;-78
2021/10/21 09:24:47;;;;;;;14.32;11.00;;;;;;;14.86;59.29;97246.81;5092164;28;20028;-81
2021/10/21 09:27:15;;;;;;;15.20;9.95;;;;;;;14.89;58.78;97251.59;5096527;28;20600;-81
2021/10/21 09:29:46;;;;;;;19.27;12.48;;;;;;;14.92;59.01;97250.09;5088783;28;20028;-80
2021/10/21 09:32:16;;;;;;;14.27;10.05;;;;;;;14.89;59.33;97262.63;5092989;28;20042;-79
2021/10/21 09:34:51;;;;;;;25.25;12.65;;;;;;;14.85;59.78;97266.47;5070342;28;20036;-78
2021/10/21 09:37:24;;;;;;;18.83;11.05;;;;;;;14.78;59.93;97247.78;5087482;28;20039;-78
2021/10/21 09:40:03;;;;;;;12.77;9.20;;;;;;;14.68;59.69;97278.59;5086446;28;20020;-77
2021/10/21 09:42:31;;;;;;;14.02;9.88;;;;;;;14.52;60.74;97287.63;5096301;28;20032;-77
2021/10/21 09:45:17;;;;;;;13.80;10.60;;;;;;;14.37;61.66;97282.88;5102781;28;20076;-74
2021/10/21 09:47:45;;;;;;;13.85;10.32;;;;;;;14.23;61.62;97270.28;5104147;28;20058;-75
2021/10/21 09:50:20;;;;;;;13.60;9.77;;;;;;;14.15;62.22;97304.31;5112285;28;20028;-77
2021/10/21 09:53:04;;;;;;;11.95;9.15;;;;;;;14.09;62.04;97286.38;5113876;28;20038;-79
2021/10/21 09:55:29;;;;;;;14.02;9.90;;;;;;;14.03;62.77;97282.28;5092580;28;20028;-74
2021/10/21 09:58:03;;;;;;;14.70;9.88;;;;;;;13.96;62.57;97283.69;5089323;28;20034;-76
2021/10/21 10:00:30;;;;;;;10.73;8.77;;;;;;;14.01;63.22;97284.59;5097342;28;20031;-74
2021/10/21 10:03:17;;;;;;;14.38;10.20;;;;;;;13.99;63.24;97285.75;5099801;28;20020;-75
2021/10/21 10:05:53;;;;;;;13.95;10.18;;;;;;;14.03;63.67;97240.94;5074564;28;20050;-75
2021/10/21 10:08:19;;;;;;;14.50;10.30;;;;;;;14.07;63.70;97215.06;5105517;28;20019;-73
2021/10/21 10:10:49;;;;;;;14.13;9.77;;;;;;;14.14;63.17;97226.31;5099326;28;20031;-77
2021/10/21 10:13:16;;;;;;;13.55;11.02;;;;;;;14.20;63.26;97229.63;5095549;28;20081;-79
2021/10/21 10:15:44;;;;;;;13.50;10.68;;;;;;;14.28;62.89;97227.84;5092003;28;20116;-76
2021/10/21 10:18:17;;;;;;;12.50;10.00;;;;;;;14.32;62.74;97226.00;5081115;28;20041;-78
2021/10/21 10:20:51;;;;;;;25.27;19.63;;;;;;;14.30;62.13;97220.03;5101059;28;20382;-74
2021/10/21 10:23:19;;;;;;;16.67;11.35;;;;;;;14.33;62.24;97233.13;5112351;28;20023;-74
2021/10/21 10:25:49;;;;;;;25.92;16.10;;;;;;;14.33;61.93;97218.53;5096244;28;20032;-75
2021/10/21 10:28:15;;;;;;;19.95;12.02;;;;;;;14.33;61.58;97218.53;5092959;28;20091;-84
2021/10/21 10:30:46;;;;;;;20.38;11.85;;;;;;;14.32;61.50;97214.19;5069014;28;20028;-76
2021/10/21 10:33:12;;;;;;;11.68;8.68;;;;;;;14.28;61.67;97223.16;5087450;28;20067;-74
2021/10/21 10:35:41;;;;;;;11.98;8.32;;;;;;;14.26;61.50;97216.41;5096895;28;20028;-77
2021/10/21 10:38:08;;;;;;;21.17;12.75;;;;;;;14.23;61.61;97222.63;5088903;28;20047;-73
2021/10/21 10:40:58;;;;;;;13.93;8.60;;;;;;;14.23;61.94;97230.88;5097134;28;20038;-76
2021/10/21 10:43:40;;;;;;;14.23;8.32;;;;;;;14.23;61.75;97220.63;5103405;28;20039;-75
2021/10/21 10:46:06;;;;;;;10.93;7.72;;;;;;;14.28;61.66;97225.91;5091270;28;20400;-75
2021/10/21 10:48:48;;;;;;;14.27;8.75;;;;;;;14.32;61.51;97211.41;5090513;28;20039;-75
2021/10/21 10:51:14;;;;;;;12.02;8.50;;;;;;;14.34;61.56;97184.28;5076105;28;20036;-76
2021/10/21 10:53:47;;;;;;;13.15;8.48;;;;;;;14.39;61.61;97178.53;5089055;28;20027;-75
2021/10/21 10:56:38;;;;;;;13.48;9.07;;;;;;;14.44;61.33;97178.28;5071350;28;20085;-75
2021/10/21 10:59:22;;;;;;;11.70;8.00;;;;;;;14.46;61.09;97166.88;5090606;28;20192;-74
2021/10/21 11:01:49;;;;;;;14.70;8.48;;;;;;;14.42;61.06;97167.56;5097630;28;20027;-73
2021/10/21 11:04:55;;;;;;;15.13;9.27;;;;;;;14.44;61.02;97167.25;5077199;28;20538;-75
2021/10/21 11:07:49;;;;;;;12.73;8.23;;;;;;;14.44;61.11;97153.44;5094473;28;20032;-76
2021/10/21 11:10:18;;;;;;;12.60;8.10;;;;;;;14.44;61.12;97145.16;5091093;28;20024;-74
2021/10/21 11:12:48;;;;;;;11.32;8.43;;;;;;;14.45;61.47;97160.56;5107741;28;20027;-77
2021/10/21 11:15:29;;;;;;;10.77;8.32;;;;;;;14.45;61.34;97168.84;5108299;28;20024;-75
2021/10/21 11:18:00;;;;;;;13.65;8.75;;;;;;;14.48;61.30;97165.34;5091349;28;20093;-76
2021/10/21 11:20:29;;;;;;;15.23;9.45;;;;;;;14.51;61.41;97183.16;5096566;28;20054;-74
2021/10/21 11:23:04;;;;;;;13.00;7.95;;;;;;;14.55;61.03;97176.56;5111448;28;20576;-74